Time;durP1;ratioP1;P1;durP2;ratioP2;P2;SDS_P1;SDS_P2;PMS_P1;PMS_P2;Temp;Humidity;BMP_temperature;BMP_pressure;BME280_temperature;BME280_humidity;BME280_pressure;Samples;Min_cycle;Max_cycle;Signal;HPM_P1;HPM_P2
2023/10/12 00:02:13;;;;;;;11.73;6.93;;;20.70;79.10;;;;;;6273863;22;20364;-72
2023/10/12 00:04:43;;;;;;;12.27;6.90;;;20.70;79.10;;;;;;6273069;22;20020;-70
2023/10/12 00:07:25;;;;;;;9.73;6.35;;;20.70;79.10;;;;;;6273510;22;20020;-71
2023/10/12 00:10:19;;;;;;;9.15;6.07;;;20.70;79.10;;;;;;6274086;22;20011;-71
2023/10/12 00:12:46;;;;;;;9.98;6.47;;;20.70;79.20;;;;;;6274318;22;20432;-71
2023/10/12 00:15:28;;;;;;;9.55;6.18;;;20.70;79.10;;;;;;6273836;22;20051;-71
2023/10/12 00:17:56;;;;;;;12.10;6.65;;;20.70;79.10;;;;;;6273474;22;20076;-72
2023/10/12 00:20:32;;;;;;;10.80;6.30;;;20.70;79.10;;;;;;6273970;22;20479;-71
2023/10/12 00:23:09;;;;;;;9.20;5.72;;;20.60;79.10;;;;;;6278124;22;20015;-71
2023/10/12 00:25:45;;;;;;;8.68;5.35;;;20.60;79.10;;;;;;6275247;22;20087;-71
2023/10/12 00:28:13;;;;;;;9.27;6.07;;;20.70;79.10;;;;;;6275741;22;20020;-71
2023/10/12 00:30:41;;;;;;;9.13;6.45;;;20.60;79.10;;;;;;6277814;22;20034;-72
2023/10/12 00:33:08;;;;;;;11.20;6.20;;;20.60;79.00;;;;;;6274978;22;20093;-72
2023/10/12 00:35:37;;;;;;;7.90;5.72;;;20.60;79.10;;;;;;6276077;22;20019;-72
2023/10/12 00:38:16;;;;;;;8.10;5.63;;;20.70;79.10;;;;;;6276086;22;20019;-72
2023/10/12 00:40:51;;;;;;;8.25;5.25;;;20.70;79.10;;;;;;6275046;22;20093;-71
2023/10/12 00:43:17;;;;;;;7.95;5.05;;;20.60;79.10;;;;;;6275744;22;20027;-71
2023/10/12 00:45:43;;;;;;;9.18;5.32;;;20.60;79.00;;;;;;6274928;22;20020;-71
2023/10/12 00:48:08;;;;;;;11.05;5.68;;;20.60;79.00;;;;;;6277358;22;20047;-71
2023/10/12 00:50:37;;;;;;;9.10;5.15;;;20.60;79.00;;;;;;6275867;22;20019;-71
2023/10/12 00:53:22;;;;;;;7.55;5.30;;;20.60;79.00;;;;;;6274984;22;20452;-71
2023/10/12 00:55:47;;;;;;;7.53;4.93;;;20.60;79.00;;;;;;6275917;22;20016;-71
2023/10/12 00:58:17;;;;;;;8.75;5.93;;;20.60;79.00;;;;;;6250137;22;20503;-71
2023/10/12 01:00:46;;;;;;;7.15;4.63;;;20.60;79.00;;;;;;6274605;22;20026;-72
2023/10/12 01:06:34;;;;;;;7.97;5.03;;;20.60;79.00;;;;;;6275932;22;20103;-72
2023/10/12 01:08:52;;;;;;;8.23;5.00;;;20.60;79.00;;;;;;6270347;22;20028;-72
2023/10/12 01:11:20;;;;;;;6.82;4.88;;;20.60;79.00;;;;;;6275441;22;20055;-71
2023/10/12 01:13:48;;;;;;;7.90;4.22;;;20.60;79.00;;;;;;6274610;22;20020;-72
2023/10/12 01:16:23;;;;;;;9.77;4.82;;;20.60;78.90;;;;;;6275210;22;20054;-72
2023/10/12 01:18:51;;;;;;;6.35;4.07;;;20.60;79.00;;;;;;6275778;22;20027;-72
2023/10/12 01:21:17;;;;;;;6.72;4.28;;;20.60;79.00;;;;;;6274536;22;20023;-71
2023/10/12 01:23:50;;;;;;;6.40;3.88;;;20.60;79.00;;;;;;6275544;22;20360;-71
2023/10/12 01:26:16;;;;;;;6.43;4.30;;;20.60;79.00;;;;;;6275035;22;20362;-71
2023/10/12 01:28:49;;;;;;;8.80;4.20;;;20.60;79.00;;;;;;6274546;22;20030;-71
2023/10/12 01:31:18;;;;;;;6.60;4.32;;;20.60;78.90;;;;;;6275215;22;20020;-71
2023/10/12 01:33:44;;;;;;;4.68;3.60;;;20.60;79.00;;;;;;6250638;22;20034;-72
2023/10/12 01:36:11;;;;;;;7.38;3.97;;;20.50;78.90;;;;;;6274370;22;20087;-72
2023/10/12 01:38:37;;;;;;;6.80;4.07;;;20.60;79.00;;;;;;6275530;22;20023;-71
2023/10/12 01:41:09;;;;;;;6.03;3.78;;;20.50;78.80;;;;;;6276943;22;20503;-71
2023/10/12 01:43:35;;;;;;;5.93;3.50;;;20.50;78.90;;;;;;6274552;22;20335;-72
2023/10/12 01:46:07;;;;;;;6.22;4.05;;;20.50;78.80;;;;;;6275431;22;20024;-72
2023/10/12 01:48:36;;;;;;;6.18;3.20;;;20.50;78.80;;;;;;6276876;22;20020;-71
2023/10/12 01:51:14;;;;;;;7.38;3.63;;;20.60;78.90;;;;;;6274551;22;20336;-72
2023/10/12 01:53:40;;;;;;;6.15;3.53;;;20.60;78.90;;;;;;6275381;22;20012;-71
2023/10/12 01:56:09;;;;;;;5.97;3.30;;;20.50;78.80;;;;;;6274379;22;20828;-71
2023/10/12 01:58:35;;;;;;;6.35;3.60;;;20.50;79.10;;;;;;6275321;22;20027;-71
2023/10/12 02:01:07;;;;;;;5.60;2.88;;;20.50;78.80;;;;;;6274542;22;20072;-71
2023/10/12 02:03:37;;;;;;;5.35;2.70;;;20.50;78.70;;;;;;6273558;22;20023;-71
2023/10/12 02:06:05;;;;;;;5.43;2.78;;;20.50;78.70;;;;;;6274525;22;20517;-72
2023/10/12 02:08:32;;;;;;;6.43;3.30;;;20.50;78.70;;;;;;6274706;22;20011;-71
2023/10/12 02:11:45;;;;;;;5.03;2.33;;;20.50;78.70;;;;;;6276006;22;20031;-71
2023/10/12 02:13:51;;;;;;;7.40;3.33;;;20.50;78.70;;;;;;6267915;22;20024;-72
2023/10/12 02:16:26;;;;;;;5.22;2.72;;;20.50;78.70;;;;;;6274442;22;20455;-71
2023/10/12 02:18:54;;;;;;;5.45;2.97;;;20.50;78.70;;;;;;6274299;22;20012;-71
2023/10/12 02:21:21;;;;;;;6.63;2.30;;;20.50;78.70;;;;;;6274666;22;20016;-71
2023/10/12 02:31:53;;;;;;;4.30;2.45;;;20.50;78.60;;;;;;6275971;22;20031;-71
2023/10/12 02:34:20;;;;;;;4.00;2.40;;;20.50;78.50;;;;;;6276522;22;20012;-71
2023/10/12 02:39:38;;;;;;;5.90;2.42;;;20.50;78.50;;;;;;6273966;22;20102;-71
2023/10/12 02:47:22;;;;;;;3.67;2.00;;;20.50;78.60;;;;;;6275389;22;20023;-71
2023/10/12 02:49:49;;;;;;;5.55;2.47;;;20.50;78.60;;;;;;6274651;22;20016;-71
2023/10/12 02:52:15;;;;;;;3.38;1.90;;;20.50;78.60;;;;;;6273439;22;20020;-71
2023/10/12 02:54:51;;;;;;;3.88;2.03;;;20.40;78.60;;;;;;6274842;22;20016;-71
2023/10/12 02:57:23;;;;;;;5.32;2.42;;;20.40;78.60;;;;;;6274344;22;20027;-71
2023/10/12 02:59:56;;;;;;;4.55;1.85;;;20.50;78.60;;;;;;6273508;22;20030;-71
2023/10/12 03:02:30;;;;;;;2.75;1.75;;;20.50;78.50;;;;;;6274379;22;20023;-71
2023/10/12 03:04:55;;;;;;;4.10;1.80;;;20.40;78.40;;;;;;6274641;22;20015;-71
2023/10/12 03:07:24;;;;;;;3.92;2.00;;;20.40;78.50;;;;;;6273435;22;20015;-71
2023/10/12 03:09:57;;;;;;;4.95;2.00;;;20.40;78.50;;;;;;6276589;22;20020;-72
2023/10/12 03:12:23;;;;;;;5.63;1.98;;;20.40;78.50;;;;;;6276298;22;20019;-71
2023/10/12 03:14:53;;;;;;;4.20;2.10;;;20.40;78.40;;;;;;6273517;22;20065;-71
2023/10/12 03:17:19;;;;;;;4.63;1.67;;;20.40;78.40;;;;;;6274258;22;20016;-72
2023/10/12 03:19:55;;;;;;;3.80;1.90;;;20.40;78.40;;;;;;6274487;22;20466;-72
2023/10/12 03:22:34;;;;;;;4.90;1.80;;;20.40;78.30;;;;;;6273386;22;20012;-72
2023/10/12 03:25:19;;;;;;;4.00;1.55;;;20.40;78.40;;;;;;6274523;22;20047;-72
2023/10/12 03:27:50;;;;;;;4.55;1.73;;;20.40;78.90;;;;;;6273734;22;20027;-72
2023/10/12 03:30:17;;;;;;;4.50;1.60;;;20.40;78.40;;;;;;6274158;22;20027;-72
2023/10/12 03:32:44;;;;;;;3.67;1.33;;;20.40;78.40;;;;;;6274607;22;20043;-72
2023/10/12 03:35:13;;;;;;;4.03;1.70;;;20.40;78.30;;;;;;6273140;22;20023;-73
2023/10/12 03:37:45;;;;;;;3.95;1.55;;;20.40;78.30;;;;;;6274483;22;20019;-72
2023/10/12 03:42:56;;;;;;;4.55;1.80;;;20.40;78.30;;;;;;6274246;22;20015;-72
2023/10/12 03:45:27;;;;;;;3.58;1.35;;;20.40;78.30;;;;;;6273880;22;20367;-72
2023/10/12 03:53:41;;;;;;;4.13;1.20;;;20.40;78.20;;;;;;6227805;22;20033;-72
2023/10/12 03:56:07;;;;;;;3.42;1.33;;;20.40;78.20;;;;;;6274154;22;20019;-72
2023/10/12 03:58:39;;;;;;;3.70;1.40;;;20.40;78.30;;;;;;6276298;22;20016;-72
2023/10/12 04:01:13;;;;;;;3.63;1.48;;;20.30;78.10;;;;;;6275625;22;20019;-72
2023/10/12 04:03:41;;;;;;;5.45;1.90;;;20.40;78.20;;;;;;6274980;22;20031;-72
2023/10/12 04:06:23;;;;;;;3.15;1.45;;;20.40;78.20;;;;;;6275765;22;20016;-72
2023/10/12 04:08:58;;;;;;;4.05;1.40;;;20.30;78.10;;;;;;6276010;22;20023;-72
2023/10/12 04:11:47;;;;;;;2.95;1.17;;;20.30;78.70;;;;;;6277006;22;20016;-72
2023/10/12 04:14:38;;;;;;;4.13;1.20;;;20.40;78.10;;;;;;6275932;22;20022;-72
2023/10/12 04:17:08;;;;;;;4.72;1.40;;;20.30;78.10;;;;;;6275412;22;20027;-72
2023/10/12 04:19:34;;;;;;;3.47;1.40;;;20.30;78.00;;;;;;6276222;22;20020;-72
2023/10/12 04:22:15;;;;;;;3.65;1.20;;;20.40;78.10;;;;;;6276315;22;20038;-72
2023/10/12 04:24:43;;;;;;;4.50;1.50;;;20.30;78.10;;;;;;6275276;22;20478;-72
2023/10/12 04:27:27;;;;;;;3.03;1.08;;;20.30;78.10;;;;;;6275883;22;20015;-71
2023/10/12 04:29:57;;;;;;;3.17;1.20;;;20.30;78.00;;;;;;6276020;22;20028;-72
2023/10/12 04:32:40;;;;;;;3.25;1.30;;;20.30;78.00;;;;;;6276205;22;20012;-72
2023/10/12 04:35:20;;;;;;;4.03;1.45;;;20.30;78.00;;;;;;6275939;22;20019;-72
2023/10/12 04:37:47;;;;;;;3.80;1.15;;;20.30;78.00;;;;;;6275379;22;20487;-72
2023/10/12 04:43:00;;;;;;;3.10;1.25;;;20.30;78.00;;;;;;6276046;22;20024;-72
2023/10/12 04:45:30;;;;;;;3.97;1.10;;;20.30;78.00;;;;;;6274459;22;20023;-72
2023/10/12 04:48:07;;;;;;;3.88;1.00;;;20.30;78.00;;;;;;6277651;22;20019;-72
2023/10/12 04:50:58;;;;;;;2.97;1.20;;;20.30;78.00;;;;;;6275860;22;20016;-72
2023/10/12 04:53:35;;;;;;;3.78;1.30;;;20.30;78.00;;;;;;6274720;22;20024;-72
2023/10/12 04:56:09;;;;;;;3.10;1.10;;;20.30;77.90;;;;;;6275947;22;20054;-72
2023/10/12 04:58:36;;;;;;;3.88;1.30;;;20.30;77.90;;;;;;6277837;22;20091;-72
2023/10/12 05:01:19;;;;;;;3.72;1.08;;;20.30;77.90;;;;;;6274513;22;20089;-72
2023/10/12 05:04:05;;;;;;;4.78;1.00;;;20.30;78.00;;;;;;6253868;22;20020;-72
2023/10/12 05:06:32;;;;;;;4.72;1.17;;;20.30;77.80;;;;;;6274369;22;20031;-71
2023/10/12 05:08:57;;;;;;;4.47;1.17;;;20.30;77.90;;;;;;6275283;22;20020;-71
2023/10/12 05:11:27;;;;;;;2.35;0.98;;;20.30;77.90;;;;;;6275163;22;20027;-71
2023/10/12 05:13:53;;;;;;;2.47;1.00;;;20.30;78.50;;;;;;6274816;22;20498;-71
2023/10/12 05:16:26;;;;;;;3.17;1.15;;;20.30;77.90;;;;;;6275275;22;20016;-71
2023/10/12 05:18:52;;;;;;;4.45;1.27;;;20.20;77.90;;;;;;6275753;22;20090;-71
2023/10/12 05:21:17;;;;;;;3.25;0.93;;;20.30;77.90;;;;;;6274385;22;20074;-71
2023/10/12 05:23:43;;;;;;;2.85;1.00;;;20.20;77.90;;;;;;6275568;22;20016;-71
2023/10/12 05:26:09;;;;;;;2.80;1.02;;;20.30;77.90;;;;;;6275152;22;20518;-71
2023/10/12 05:28:47;;;;;;;3.78;1.30;;;20.30;77.80;;;;;;6276490;22;20027;-70
2023/10/12 05:31:13;;;;;;;3.85;1.02;;;20.20;77.80;;;;;;6275132;22;20016;-71
2023/10/12 05:33:43;;;;;;;2.85;1.00;;;20.20;78.30;;;;;;6275591;22;20316;-71
2023/10/12 05:36:10;;;;;;;3.65;1.13;;;20.20;77.80;;;;;;6276162;22;20046;-71
2023/10/12 05:38:52;;;;;;;3.60;1.10;;;20.20;77.70;;;;;;6275404;22;20020;-71
2023/10/12 05:41:34;;;;;;;3.08;1.27;;;20.20;77.80;;;;;;6274229;22;20030;-71
2023/10/12 05:44:08;;;;;;;4.18;1.45;;;20.20;77.80;;;;;;6275480;22;20043;-71
2023/10/12 05:46:34;;;;;;;3.40;1.08;;;20.20;77.80;;;;;;6275451;22;20023;-71
2023/10/12 05:49:02;;;;;;;3.15;1.00;;;20.20;77.70;;;;;;6274599;22;20107;-71
2023/10/12 05:51:27;;;;;;;4.90;1.20;;;20.20;77.70;;;;;;6276701;22;20526;-71
2023/10/12 05:54:02;;;;;;;3.33;1.10;;;20.20;77.70;;;;;;6275426;22;20029;-71
2023/10/12 05:56:30;;;;;;;3.67;1.10;;;20.20;77.70;;;;;;6274027;22;20023;-71
2023/10/12 05:58:56;;;;;;;4.03;1.27;;;20.20;77.70;;;;;;6274593;22;20402;-71
2023/10/12 06:01:35;;;;;;;2.85;0.90;;;20.20;77.70;;;;;;6274482;22;20023;-72
2023/10/12 06:04:05;;;;;;;6.32;1.40;;;20.20;77.70;;;;;;6274055;22;20047;-72
2023/10/12 06:06:34;;;;;;;2.90;0.82;;;20.20;77.70;;;;;;6274984;22;20023;-71
2023/10/12 06:09:01;;;;;;;4.30;1.00;;;20.20;77.60;;;;;;6274796;22;20016;-71
2023/10/12 06:11:29;;;;;;;3.83;1.00;;;20.20;77.60;;;;;;6276460;22;20098;-71
2023/10/12 06:13:57;;;;;;;3.72;0.80;;;20.20;77.60;;;;;;6274975;22;20027;-71
2023/10/12 06:16:25;;;;;;;3.80;0.95;;;20.20;77.60;;;;;;6273721;22;20077;-72
2023/10/12 06:18:53;;;;;;;3.00;0.95;;;20.20;77.70;;;;;;6274999;22;20030;-72
2023/10/12 06:21:19;;;;;;;3.75;0.93;;;20.20;77.70;;;;;;6274828;22;20020;-71
2023/10/12 06:23:48;;;;;;;5.22;1.20;;;20.20;77.70;;;;;;6273622;22;20095;-72
2023/10/12 06:26:29;;;;;;;4.07;0.90;;;20.20;77.70;;;;;;6274401;22;20016;-69
2023/10/12 06:28:58;;;;;;;5.10;1.00;;;20.20;77.70;;;;;;6275107;22;20058;-67
2023/10/12 06:31:25;;;;;;;4.82;1.10;;;20.20;77.70;;;;;;6275271;22;20054;-67
2023/10/12 06:33:53;;;;;;;4.45;0.95;;;20.20;77.70;;;;;;6274935;22;20499;-67
2023/10/12 06:36:22;;;;;;;6.90;1.45;;;20.20;77.80;;;;;;6276608;22;20029;-68
2023/10/12 06:39:40;;;;;;;6.90;1.55;;;20.20;77.80;;;;;;6275554;22;20032;-68
2023/10/12 06:44:12;;;;;;;6.05;1.40;;;20.20;78.00;;;;;;6274778;22;20440;-69
2023/10/12 06:46:45;;;;;;;4.10;1.33;;;20.20;78.00;;;;;;6274692;22;20089;-68
2023/10/12 06:49:17;;;;;;;2.35;1.00;;;20.20;78.00;;;;;;6274419;22;20023;-68
2023/10/12 06:51:43;;;;;;;12.50;1.70;;;20.20;78.10;;;;;;6273736;22;20091;-69
2023/10/12 06:54:19;;;;;;;6.65;1.30;;;20.20;78.00;;;;;;6276051;22;20023;-71
2023/10/12 06:56:50;;;;;;;4.82;1.02;;;20.20;78.00;;;;;;6274932;22;20051;-71
2023/10/12 06:59:21;;;;;;;6.57;1.20;;;20.20;78.00;;;;;;6273428;22;20026;-71
2023/10/12 07:04:16;;;;;;;6.97;1.15;;;20.20;78.10;;;;;;6273829;22;20106;-71
2023/10/12 07:07:07;;;;;;;3.25;1.05;;;20.20;78.10;;;;;;6273574;22;20467;-70
2023/10/12 07:09:39;;;;;;;5.35;1.17;;;20.20;78.10;;;;;;6274638;22;20073;-75
2023/10/12 07:12:12;;;;;;;5.40;1.20;;;20.30;78.20;;;;;;6274574;22;20020;-70
2023/10/12 07:14:42;;;;;;;4.57;1.13;;;20.30;78.30;;;;;;6273603;22;20058;-72
2023/10/12 07:17:08;;;;;;;3.67;0.85;;;20.30;78.40;;;;;;6274387;22;20012;-71
2023/10/12 07:19:35;;;;;;;4.57;0.90;;;20.20;78.40;;;;;;6273735;22;20211;-74
2023/10/12 07:22:01;;;;;;;4.55;1.15;;;20.30;78.50;;;;;;6276198;22;20060;-71
2023/10/12 07:24:30;;;;;;;6.65;1.42;;;20.30;78.50;;;;;;6275866;22;20027;-71
2023/10/12 07:27:09;;;;;;;5.25;1.00;;;20.30;78.60;;;;;;6273352;22;20019;-74
2023/10/12 07:29:35;;;;;;;5.78;1.08;;;20.30;78.60;;;;;;6274461;22;20023;-76
2023/10/12 07:34:54;;;;;;;5.50;1.03;;;20.30;78.70;;;;;;6273849;22;20032;-73
2023/10/12 07:37:19;;;;;;;3.40;1.17;;;20.30;78.70;;;;;;6274147;22;20020;-74
2023/10/12 07:39:50;;;;;;;6.03;1.20;;;20.30;78.70;;;;;;6274281;22;20061;-73
2023/10/12 07:42:27;;;;;;;3.47;1.10;;;20.30;78.70;;;;;;6273079;22;20023;-77
2023/10/12 07:45:05;;;;;;;3.95;0.98;;;20.30;78.80;;;;;;6275809;22;20016;-75
2023/10/12 07:47:31;;;;;;;5.45;1.48;;;20.30;78.80;;;;;;6272816;22;20019;-76
2023/10/12 07:50:10;;;;;;;3.90;0.98;;;20.30;78.80;;;;;;6274182;22;20020;-78
2023/10/12 07:52:38;;;;;;;;;;;20.40;78.90;;;;;;6275090;22;20098;-73
2023/10/12 07:55:07;;;;;;;4.13;1.00;;;20.40;78.80;;;;;;6273496;22;19934;-74
2023/10/12 07:57:36;;;;;;;6.85;1.38;;;20.40;78.80;;;;;;6276151;22;20065;-72
2023/10/12 08:00:34;;;;;;;6.93;1.08;;;20.40;78.80;;;;;;6277105;22;20020;-72
2023/10/12 08:10:56;;;;;;;4.88;1.10;;;20.50;78.80;;;;;;6278200;22;20023;-76
2023/10/12 08:13:26;;;;;;;5.55;1.15;;;20.40;78.80;;;;;;6278393;22;20034;-78
2023/10/12 08:21:32;;;;;;;7.18;1.35;;;20.60;79.00;;;;;;6279162;22;20023;-77
2023/10/12 08:24:22;;;;;;;14.20;1.73;;;20.50;78.90;;;;;;6278502;22;20072;-77
2023/10/12 08:26:50;;;;;;;3.40;1.00;;;20.50;78.90;;;;;;6279460;22;20043;-73
2023/10/12 08:39:50;;;;;;;3.95;1.00;;;20.60;78.90;;;;;;6279397;22;20047;-71
2023/10/12 08:45:10;;;;;;;3.42;1.40;;;20.60;78.90;;;;;;6280174;22;20027;-74
2023/10/12 08:52:51;;;;;;;3.45;0.93;;;20.60;78.80;;;;;;6280217;22;20019;-74
2023/10/12 08:55:25;;;;;;;5.20;1.10;;;20.60;79.40;;;;;;6308324;22;20019;-73
2023/10/12 08:57:56;;;;;;;5.13;1.00;;;20.60;78.70;;;;;;6280061;22;20019;-72
2023/10/12 09:03:07;;;;;;;3.65;0.90;;;20.60;78.60;;;;;;6308821;22;20023;-72
2023/10/12 09:05:33;;;;;;;2.50;0.90;;;20.60;78.60;;;;;;6280138;22;20098;-72
2023/10/12 09:13:35;;;;;;;5.07;0.90;;;20.60;78.60;;;;;;6307460;22;20020;-70
2023/10/12 09:16:07;;;;;;;4.25;1.05;;;20.60;78.60;;;;;;6280997;22;20054;-71
2023/10/12 09:18:42;;;;;;;4.30;1.00;;;20.60;78.60;;;;;;6308006;22;20475;-75
2023/10/12 09:23:49;;;;;;;4.70;1.02;;;20.60;78.70;;;;;;6283764;22;20054;-76
2023/10/12 09:26:19;;;;;;;5.13;0.80;;;20.50;78.60;;;;;;6279333;22;20509;-75
2023/10/12 09:36:28;;;;;;;2.50;1.00;;;20.50;78.20;;;;;;6279992;22;20030;-74
2023/10/12 09:39:00;;;;;;;11.10;1.60;;;20.50;78.10;;;;;;6280303;22;20042;-74
2023/10/12 09:41:32;;;;;;;11.25;1.45;;;20.50;78.10;;;;;;6252984;22;20007;-64
2023/10/12 09:43:58;;;;;;;9.05;1.75;;;20.50;78.30;;;;;;6280413;22;20069;-71
2023/10/12 09:46:27;;;;;;;5.85;1.30;;;20.50;78.60;;;;;;6307536;22;20102;-75
2023/10/12 09:49:06;;;;;;;4.20;0.95;;;20.50;78.40;;;;;;6279393;22;20435;-71
2023/10/12 09:51:36;;;;;;;6.25;1.60;;;20.50;78.50;;;;;;6279850;22;20050;-71
2023/10/12 09:54:09;;;;;;;6.10;1.27;;;20.50;78.60;;;;;;6279731;22;20024;-76
2023/10/12 09:56:44;;;;;;;8.70;1.17;;;20.60;78.60;;;;;;6255932;22;20019;-76
2023/10/12 09:59:13;;;;;;;6.00;1.00;;;20.50;78.60;;;;;;6258719;22;20027;-80
2023/10/12 10:05:00;;;;;;;6.20;1.40;;;20.60;78.70;;;;;;6279344;22;20034;-78
2023/10/12 10:07:14;;;;;;;6.50;1.00;;;20.60;78.80;;;;;;6262707;22;20047;-78
2023/10/12 10:09:46;;;;;;;6.78;1.40;;;20.60;78.80;;;;;;6278492;22;20015;-81
2023/10/12 10:12:16;;;;;;;8.07;1.42;;;20.60;78.80;;;;;;6253968;22;20011;-79
2023/10/12 10:14:44;;;;;;;10.05;2.50;;;20.60;78.80;;;;;;6279036;22;20050;-73
2023/10/12 10:17:16;;;;;;;8.48;1.13;;;20.60;78.80;;;;;;6276757;22;20098;-74
2023/10/12 10:19:51;;;;;;;9.02;1.50;;;20.60;78.70;;;;;;6307509;22;20023;-74
2023/10/12 10:22:18;;;;;;;6.43;1.45;;;20.60;78.70;;;;;;6276739;22;20011;-73
2023/10/12 10:24:50;;;;;;;7.18;1.50;;;20.60;78.70;;;;;;6229724;22;20019;-73
2023/10/12 10:27:17;;;;;;;4.95;1.30;;;20.60;78.80;;;;;;6254592;22;20030;-73
2023/10/12 10:30:10;;;;;;;7.65;1.40;;;20.60;78.80;;;;;;6278618;22;20015;-72
2023/10/12 10:32:39;;;;;;;6.63;1.20;;;20.60;78.80;;;;;;6279005;22;20105;-73
2023/10/12 10:35:09;;;;;;;4.05;1.15;;;20.60;78.80;;;;;;6255208;22;20099;-72
2023/10/12 10:37:58;;;;;;;6.00;1.20;;;20.60;78.80;;;;;;6254762;22;20019;-73
2023/10/12 10:40:43;;;;;;;6.45;1.17;;;20.60;78.70;;;;;;6307294;22;20068;-71
2023/10/12 10:43:14;;;;;;;5.68;1.45;;;20.60;78.60;;;;;;6279587;22;20050;-72
2023/10/12 10:45:41;;;;;;;6.28;1.13;;;20.60;78.60;;;;;;6278861;22;20019;-73
2023/10/12 10:48:07;;;;;;;6.75;2.15;;;20.60;78.60;;;;;;6307701;22;20019;-72
2023/10/12 10:50:40;;;;;;;9.00;1.35;;;20.60;78.50;;;;;;6279065;22;20031;-72
2023/10/12 10:53:08;;;;;;;7.00;1.30;;;20.60;78.20;;;;;;6253396;22;20023;-71
2023/10/12 10:55:35;;;;;;;13.48;1.70;;;20.50;78.10;;;;;;6279252;22;20049;-71
2023/10/12 10:58:01;;;;;;;10.68;2.05;;;20.50;78.10;;;;;;6253617;22;20435;-71
2023/10/12 11:00:45;;;;;;;6.78;1.60;;;20.50;78.00;;;;;;6279013;22;20089;-71
2023/10/12 11:03:15;;;;;;;12.50;2.35;;;20.50;78.10;;;;;;6279288;22;20099;-71
2023/10/12 11:05:43;;;;;;;7.97;1.50;;;20.50;78.20;;;;;;6305422;22;20427;-71
2023/10/12 11:08:21;;;;;;;12.23;2.00;;;20.50;78.20;;;;;;6254327;22;20016;-71
2023/10/12 11:13:32;;;;;;;8.40;1.33;;;20.50;78.30;;;;;;6256502;22;20016;-70
2023/10/12 11:16:03;;;;;;;7.88;1.55;;;20.50;78.30;;;;;;6279459;22;20019;-71
2023/10/12 11:18:29;;;;;;;7.65;1.40;;;20.50;78.30;;;;;;6254462;22;20019;-72
2023/10/12 11:21:00;;;;;;;5.97;1.25;;;20.50;78.30;;;;;;6253793;22;20033;-70
2023/10/12 11:23:25;;;;;;;11.45;1.67;;;20.60;78.40;;;;;;6279120;22;20092;-71
2023/10/12 11:25:55;;;;;;;5.95;1.50;;;20.60;78.40;;;;;;6253295;22;20021;-72
2023/10/12 11:28:26;;;;;;;6.70;1.20;;;20.50;78.30;;;;;;6278995;22;20019;-73
2023/10/12 11:30:52;;;;;;;15.55;1.80;;;20.60;78.40;;;;;;6279379;22;20012;-69
2023/10/12 11:33:29;;;;;;;13.48;1.80;;;20.60;78.50;;;;;;6277406;22;20505;-72
2023/10/12 11:36:00;;;;;;;14.15;2.53;;;20.60;78.40;;;;;;6279285;22;20026;-72
2023/10/12 11:38:26;;;;;;;14.07;1.98;;;20.60;78.30;;;;;;6255004;22;20026;-73
2023/10/12 11:40:58;;;;;;;19.98;2.80;;;20.60;78.30;;;;;;6278520;22;20020;-72
2023/10/12 11:43:39;;;;;;;7.28;1.40;;;20.50;78.20;;;;;;6278932;22;20015;-72
2023/10/12 11:46:06;;;;;;;7.72;1.70;;;20.60;78.30;;;;;;6279789;22;20023;-73
2023/10/12 11:48:31;;;;;;;8.20;1.40;;;20.50;78.20;;;;;;6278479;22;20015;-72
2023/10/12 11:50:57;;;;;;;12.85;1.63;;;20.50;78.20;;;;;;6279585;22;20098;-72
2023/10/12 11:53:24;;;;;;;8.35;1.70;;;20.50;78.20;;;;;;6279070;22;20043;-72
2023/10/12 11:56:08;;;;;;;7.43;2.13;;;20.50;78.20;;;;;;6278604;22;20011;-71
2023/10/12 11:58:33;;;;;;;12.00;1.92;;;20.50;78.20;;;;;;6279746;22;20050;-72
2023/10/12 12:01:00;;;;;;;7.20;1.25;;;20.50;78.20;;;;;;6278376;22;20023;-72
2023/10/12 12:03:26;;;;;;;11.63;1.50;;;20.50;78.20;;;;;;6279281;22;20027;-73
2023/10/12 12:05:51;;;;;;;8.75;1.73;;;20.50;78.20;;;;;;6307117;22;20055;-72
2023/10/12 12:08:24;;;;;;;7.75;1.50;;;20.50;78.20;;;;;;6278021;22;20042;-72
2023/10/12 12:13:23;;;;;;;7.25;1.23;;;20.50;78.20;;;;;;6306335;22;20366;-72
2023/10/12 12:15:49;;;;;;;4.57;1.20;;;20.40;78.20;;;;;;6278408;22;20390;-73
2023/10/12 12:18:21;;;;;;;9.50;1.60;;;20.50;78.20;;;;;;6280590;22;20037;-73
2023/10/12 12:20:50;;;;;;;6.03;1.15;;;20.40;78.20;;;;;;6281446;22;20051;-72
2023/10/12 12:23:16;;;;;;;7.75;1.20;;;20.40;78.20;;;;;;6279934;22;20458;-72
2023/10/12 12:25:42;;;;;;;13.82;1.50;;;20.40;78.20;;;;;;6281048;22;20423;-72
2023/10/12 12:28:08;;;;;;;7.18;1.33;;;20.40;78.20;;;;;;6280918;22;20099;-72
2023/10/12 12:30:35;;;;;;;7.38;1.58;;;20.40;78.20;;;;;;6280214;22;20023;-72
2023/10/12 12:33:08;;;;;;;11.02;1.42;;;20.40;78.20;;;;;;6281264;22;20007;-72
2023/10/12 12:35:38;;;;;;;8.73;1.45;;;20.40;78.20;;;;;;6281442;22;20012;-72
2023/10/12 12:38:07;;;;;;;5.70;0.93;;;20.40;78.20;;;;;;6280345;22;20141;-72
2023/10/12 12:40:38;;;;;;;4.90;1.38;;;20.40;78.30;;;;;;6281949;22;20038;-71
2023/10/12 12:43:07;;;;;;;5.85;1.20;;;20.40;78.30;;;;;;6280200;22;20026;-72
2023/10/12 12:45:35;;;;;;;7.28;1.25;;;20.40;78.30;;;;;;6280843;22;20363;-72
2023/10/12 12:48:07;;;;;;;7.32;1.35;;;20.40;78.30;;;;;;6281109;22;20019;-73
2023/10/12 12:50:32;;;;;;;5.93;1.08;;;20.40;78.30;;;;;;6280060;22;20019;-72
2023/10/12 12:52:58;;;;;;;6.45;1.00;;;20.40;78.30;;;;;;6281210;22;20034;-73
2023/10/12 12:55:27;;;;;;;6.60;1.20;;;20.40;78.30;;;;;;6280823;22;20019;-72
2023/10/12 12:57:56;;;;;;;4.72;1.05;;;20.40;78.30;;;;;;6280149;22;20339;-72
2023/10/12 13:00:22;;;;;;;8.27;1.20;;;20.40;78.20;;;;;;6280473;22;20027;-72
2023/10/12 13:02:47;;;;;;;5.53;1.20;;;20.40;78.30;;;;;;6280933;22;20027;-72
2023/10/12 13:05:14;;;;;;;6.90;1.17;;;20.40;78.20;;;;;;6307104;22;20410;-72
2023/10/12 13:07:40;;;;;;;4.13;1.13;;;20.50;78.20;;;;;;6281056;22;20008;-72
2023/10/12 13:10:07;;;;;;;5.72;1.10;;;20.50;78.30;;;;;;6281051;22;20051;-72
2023/10/12 13:12:33;;;;;;;6.13;1.30;;;20.50;78.30;;;;;;6279761;22;20015;-72
2023/10/12 13:15:01;;;;;;;4.55;1.17;;;20.50;78.20;;;;;;6280778;22;20061;-73
2023/10/12 13:17:30;;;;;;;6.78;1.27;;;20.50;78.20;;;;;;6280608;22;20011;-72
2023/10/12 13:19:59;;;;;;;6.55;1.30;;;20.50;78.20;;;;;;6279859;22;20324;-72
2023/10/12 13:22:28;;;;;;;6.72;1.08;;;20.50;78.20;;;;;;6279857;22;20015;-69
2023/10/12 13:24:57;;;;;;;10.27;1.25;;;20.50;78.10;;;;;;6280615;22;20102;-74
2023/10/12 13:27:24;;;;;;;7.10;1.20;;;20.50;78.10;;;;;;6276871;22;20015;-74
2023/10/12 13:29:51;;;;;;;6.40;1.00;;;20.50;78.10;;;;;;6280055;22;20385;-72
2023/10/12 13:32:17;;;;;;;8.45;1.40;;;20.60;78.30;;;;;;6278288;22;20017;-73
2023/10/12 13:34:43;;;;;;;5.38;1.20;;;20.60;78.30;;;;;;6280128;22;20094;-72
2023/10/12 13:37:08;;;;;;;5.13;1.08;;;20.60;78.40;;;;;;6307521;22;20054;-74
2023/10/12 13:39:34;;;;;;;4.13;0.70;;;20.60;78.50;;;;;;6279641;22;20022;-72
2023/10/12 13:41:59;;;;;;;7.60;1.58;;;20.70;78.50;;;;;;6280397;22;20023;-77
2023/10/12 13:44:25;;;;;;;6.55;1.13;;;20.60;78.50;;;;;;6279780;22;20026;-73
2023/10/12 13:46:51;;;;;;;6.88;1.20;;;20.60;78.40;;;;;;6279789;22;20030;-72
2023/10/12 13:49:20;;;;;;;4.47;1.00;;;20.70;78.50;;;;;;6280293;22;20007;-71
2023/10/12 13:51:48;;;;;;;6.13;1.00;;;20.70;78.50;;;;;;6280210;22;20037;-73
2023/10/12 13:54:14;;;;;;;5.68;1.38;;;20.70;78.50;;;;;;6279045;22;20019;-72
2023/10/12 13:56:44;;;;;;;4.63;0.85;;;20.70;78.60;;;;;;6307953;22;20015;-74
2023/10/12 13:59:09;;;;;;;3.50;1.10;;;20.70;78.50;;;;;;6280035;22;20026;-72
2023/10/12 14:01:36;;;;;;;6.78;1.20;;;20.70;78.50;;;;;;6306456;22;20115;-77
2023/10/12 14:04:22;;;;;;;5.85;0.90;;;20.70;78.50;;;;;;6280399;22;20358;-76
2023/10/12 14:06:48;;;;;;;4.03;1.02;;;20.70;78.50;;;;;;6280264;22;20027;-74
2023/10/12 14:09:15;;;;;;;6.32;1.63;;;20.70;78.50;;;;;;6278679;22;20018;-75
2023/10/12 14:11:41;;;;;;;7.45;1.20;;;20.70;78.50;;;;;;6280036;22;20023;-81
2023/10/12 14:14:09;;;;;;;7.03;1.23;;;20.70;78.50;;;;;;6279492;22;20026;-81
2023/10/12 14:16:35;;;;;;;5.65;1.00;;;20.70;78.50;;;;;;6279541;22;20073;-81
2023/10/12 14:19:02;;;;;;;4.20;1.10;;;20.70;78.50;;;;;;6280388;22;20011;-81
2023/10/12 14:21:29;;;;;;;5.82;1.10;;;20.70;78.50;;;;;;6278779;22;20076;-71
2023/10/12 14:23:58;;;;;;;5.10;0.80;;;20.80;78.50;;;;;;6280210;22;20493;-74
2023/10/12 14:26:24;;;;;;;5.57;1.00;;;20.70;78.50;;;;;;6279868;22;20019;-74
2023/10/12 14:28:50;;;;;;;6.70;1.00;;;20.70;78.50;;;;;;6279318;22;20015;-73
2023/10/12 14:31:16;;;;;;;6.00;1.33;;;20.80;78.40;;;;;;6279639;22;20019;-75
2023/10/12 14:33:42;;;;;;;7.03;1.38;;;20.70;78.30;;;;;;6280203;22;20015;-75
2023/10/12 14:36:09;;;;;;;5.72;1.02;;;20.80;78.30;;;;;;6278639;22;20107;-75
2023/10/12 14:38:34;;;;;;;5.22;0.90;;;20.80;78.30;;;;;;6307218;22;20069;-68
2023/10/12 14:41:00;;;;;;;5.63;1.08;;;20.80;78.20;;;;;;6279984;22;20019;-73